createdAt,value
2023-02-03T00:00:09.456Z,39.15
2023-02-03T00:03:00.458Z,38.38
2023-02-03T00:05:29.650Z,39.13
2023-02-03T00:07:57.734Z,38.28
2023-02-03T00:10:26.484Z,37.50
2023-02-03T00:12:54.953Z,40.03
2023-02-03T00:15:23.558Z,39.70
2023-02-03T00:17:51.872Z,37.83
2023-02-03T00:20:20.793Z,40.45
2023-02-03T00:22:49.382Z,41.00
2023-02-03T00:25:19.180Z,41.40
2023-02-03T00:27:47.655Z,40.00
2023-02-03T00:30:16.461Z,39.63
2023-02-03T00:32:44.914Z,41.72
2023-02-03T00:35:13.713Z,41.40
2023-02-03T00:37:42.112Z,40.97
2023-02-03T00:40:11.698Z,42.08
2023-02-03T00:42:40.188Z,41.10
2023-02-03T00:45:09.262Z,42.20
2023-02-03T00:47:37.852Z,40.92
2023-02-03T00:50:07.311Z,41.05
2023-02-03T00:52:37.350Z,38.40
2023-02-03T00:55:06.417Z,41.38
2023-02-03T00:57:35.374Z,42.05
2023-02-03T01:00:04.127Z,40.75
2023-02-03T01:02:33.042Z,40.80
2023-02-03T01:05:01.716Z,40.38
2023-02-03T01:07:33.476Z,40.33
2023-02-03T01:10:01.910Z,40.55
2023-02-03T01:12:31.370Z,38.05
2023-02-03T01:15:01.477Z,38.53
2023-02-03T01:17:30.298Z,36.65
2023-02-03T01:19:58.818Z,37.75
2023-02-03T01:22:29.421Z,37.33
2023-02-03T01:24:58.347Z,37.17
2023-02-03T01:27:27.201Z,37.47
2023-02-03T01:29:57.985Z,37.42
2023-02-03T01:32:28.217Z,38.00
2023-02-03T01:34:56.651Z,35.90
2023-02-03T01:37:25.533Z,36.47
2023-02-03T01:39:56.049Z,37.30
2023-02-03T01:42:24.880Z,35.33
2023-02-03T01:44:55.350Z,34.78
2023-02-03T01:47:37.402Z,34.70
2023-02-03T01:50:16.201Z,37.00
2023-02-03T01:52:54.205Z,33.60
2023-02-03T01:55:25.900Z,33.38
2023-02-03T01:58:01.452Z,34.47
2023-02-03T02:00:30.041Z,33.70
2023-02-03T02:02:59.665Z,33.63
2023-02-03T02:05:50.771Z,33.55
2023-02-03T02:08:19.900Z,31.85
2023-02-03T02:10:48.379Z,31.98
2023-02-03T02:13:18.252Z,32.50
2023-02-03T02:16:14.206Z,33.70
2023-02-03T02:19:20.634Z,33.40
2023-02-03T02:22:19.902Z,32.60
2023-02-03T02:25:03.960Z,32.15
2023-02-03T02:27:52.250Z,30.70
2023-02-03T02:30:46.127Z,33.40
2023-02-03T02:33:20.081Z,33.10
2023-02-03T02:35:59.069Z,32.03
2023-02-03T02:38:38.862Z,32.58
2023-02-03T02:41:16.890Z,33.22
2023-02-03T02:44:00.139Z,32.42
2023-02-03T02:46:50.764Z,34.92
2023-02-03T02:49:35.843Z,32.58
2023-02-03T02:52:05.658Z,34.17
2023-02-03T02:54:35.022Z,35.83
2023-02-03T02:57:04.592Z,36.15
2023-02-03T02:59:33.585Z,34.97
2023-02-03T03:02:02.526Z,35.65
2023-02-03T03:04:31.903Z,35.50
2023-02-03T03:07:04.875Z,36.78
2023-02-03T03:09:39.966Z,35.60
2023-02-03T03:12:11.061Z,37.63
2023-02-03T03:14:42.042Z,36.33
2023-02-03T03:17:12.186Z,40.00
2023-02-03T03:19:43.154Z,37.60
2023-02-03T03:22:13.833Z,39.83
2023-02-03T03:24:50.029Z,40.05
2023-02-03T03:27:23.641Z,40.83
2023-02-03T03:29:59.812Z,38.20
2023-02-03T03:32:30.991Z,39.33
2023-02-03T03:35:00.514Z,38.22
2023-02-03T03:37:32.932Z,39.08
2023-02-03T03:40:11.454Z,39.75
2023-02-03T03:42:46.652Z,41.28
2023-02-03T03:45:22.911Z,39.67
2023-02-03T03:48:07.083Z,40.30
2023-02-03T03:50:41.652Z,40.60
2023-02-03T03:53:10.692Z,41.35
2023-02-03T03:55:41.835Z,38.92
2023-02-03T03:58:16.411Z,41.40
2023-02-03T04:00:45.009Z,39.05
2023-02-03T04:03:21.629Z,38.90
2023-02-03T04:05:50.368Z,37.72
2023-02-03T04:08:19.725Z,37.95
2023-02-03T04:10:48.394Z,38.10
2023-02-03T04:13:20.878Z,36.97
2023-02-03T04:15:49.577Z,37.67
2023-02-03T04:18:18.629Z,37.15
2023-02-03T04:20:46.932Z,35.70
2023-02-03T04:23:15.667Z,37.25
2023-02-03T04:25:44.084Z,35.53
2023-02-03T04:28:13.044Z,35.53
2023-02-03T04:30:41.559Z,35.33
2023-02-03T04:33:10.482Z,35.80
2023-02-03T04:35:38.985Z,36.22
2023-02-03T04:38:07.794Z,36.25
2023-02-03T04:40:36.157Z,36.72
2023-02-03T04:43:08.566Z,36.17
2023-02-03T04:45:37.210Z,36.70
2023-02-03T04:48:06.330Z,37.22
2023-02-03T04:50:34.825Z,35.83
2023-02-03T04:53:03.747Z,35.80
2023-02-03T04:55:32.260Z,34.47
2023-02-03T04:58:01.297Z,35.33
2023-02-03T05:00:30.180Z,35.03
2023-02-03T05:02:59.184Z,37.20
2023-02-03T05:05:27.989Z,36.22
2023-02-03T05:07:57.081Z,32.63
2023-02-03T05:10:26.090Z,34.17
2023-02-03T05:12:55.329Z,33.83
2023-02-03T05:15:23.935Z,34.65
2023-02-03T05:17:54.475Z,33.50
2023-02-03T05:20:23.206Z,33.28
2023-02-03T05:22:52.224Z,32.08
2023-02-03T05:25:20.833Z,31.80
2023-02-03T05:27:49.888Z,33.97
2023-02-03T05:30:18.782Z,33.35
2023-02-03T05:32:47.553Z,31.90
2023-02-03T05:35:16.118Z,32.80
2023-02-03T05:37:46.025Z,31.92
2023-02-03T05:40:33.363Z,31.42
2023-02-03T05:43:02.501Z,32.42
2023-02-03T05:45:31.701Z,32.10
2023-02-03T05:48:02.666Z,31.50
2023-02-03T05:50:36.240Z,31.95
2023-02-03T05:53:10.000Z,32.45
2023-02-03T05:55:38.616Z,30.42
2023-02-03T05:58:07.455Z,30.30
2023-02-03T06:00:36.353Z,32.10
2023-02-03T06:03:05.267Z,32.55
2023-02-03T06:05:34.613Z,31.33
2023-02-03T06:08:03.422Z,31.90
2023-02-03T06:10:31.864Z,29.40
2023-02-03T06:13:00.734Z,32.75
2023-02-03T06:15:29.287Z,31.42
2023-02-03T06:17:58.137Z,30.58
2023-02-03T06:20:26.838Z,31.08
2023-02-03T06:22:55.825Z,31.52
2023-02-03T06:25:24.546Z,32.42
2023-02-03T06:27:53.568Z,30.67
2023-02-03T06:30:24.031Z,30.83
2023-02-03T06:32:52.834Z,31.20
2023-02-03T06:35:21.383Z,34.55
2023-02-03T06:37:50.206Z,31.95
2023-02-03T06:40:18.993Z,33.67
2023-02-03T06:42:48.338Z,35.13
2023-02-03T06:45:17.011Z,32.80
2023-02-03T06:47:46.136Z,33.58
2023-02-03T06:50:15.589Z,34.22
2023-02-03T06:52:44.319Z,34.22
2023-02-03T06:55:14.867Z,34.05
2023-02-03T06:57:45.244Z,35.03
2023-02-03T07:00:18.424Z,38.15
2023-02-03T07:02:53.876Z,36.47
2023-02-03T07:05:23.298Z,38.50
2023-02-03T07:07:52.274Z,39.42
2023-02-03T07:10:21.045Z,43.97
2023-02-03T07:12:51.155Z,42.03
2023-02-03T07:15:19.653Z,40.55
2023-02-03T07:17:54.865Z,44.05
2023-02-03T07:20:23.987Z,45.75
2023-02-03T07:22:56.950Z,45.30
2023-02-03T07:25:25.838Z,46.65
2023-02-03T07:27:54.906Z,47.47
2023-02-03T07:30:23.426Z,47.10
2023-02-03T07:32:54.116Z,47.63
2023-02-03T07:35:22.477Z,49.25
2023-02-03T07:37:51.243Z,52.03
2023-02-03T07:40:19.814Z,51.08
2023-02-03T07:42:49.355Z,51.15
2023-02-03T07:45:18.268Z,50.45
2023-02-03T07:47:46.912Z,48.95
2023-02-03T07:50:15.315Z,53.03
2023-02-03T07:52:43.920Z,51.88
2023-02-03T07:55:12.202Z,51.08
2023-02-03T07:57:43.840Z,54.38
2023-02-03T08:00:14.292Z,52.42
2023-02-03T08:02:43.583Z,56.42
2023-02-03T08:05:12.645Z,53.85
2023-02-03T08:07:41.609Z,53.95
2023-02-03T08:10:11.084Z,54.88
2023-02-03T08:12:40.263Z,56.60
2023-02-03T08:15:09.642Z,55.35
2023-02-03T08:17:40.290Z,57.80
2023-02-03T08:20:12.288Z,56.13
2023-02-03T08:22:40.977Z,59.65
2023-02-03T08:25:10.185Z,57.53
2023-02-03T08:27:39.038Z,58.47
2023-02-03T08:30:09.257Z,56.05
2023-02-03T08:32:38.066Z,59.08
2023-02-03T08:35:07.767Z,58.78
2023-02-03T08:37:36.734Z,58.45
2023-02-03T08:40:06.682Z,57.97
2023-02-03T08:42:35.469Z,57.35
2023-02-03T08:45:05.166Z,60.00
2023-02-03T08:47:36.972Z,58.60
2023-02-03T08:50:06.715Z,57.08
2023-02-03T08:52:35.984Z,57.47
2023-02-03T08:55:04.681Z,61.22
2023-02-03T08:57:35.358Z,57.63
2023-02-03T09:00:05.515Z,58.72
2023-02-03T09:02:34.217Z,57.10
2023-02-03T09:05:02.822Z,56.47
2023-02-03T09:07:31.570Z,55.65
2023-02-03T09:09:59.895Z,58.88
2023-02-03T09:12:28.645Z,58.55
2023-02-03T09:14:56.959Z,59.47
2023-02-03T09:17:26.043Z,57.22
2023-02-03T09:19:55.008Z,57.28
2023-02-03T09:22:23.970Z,57.58
2023-02-03T09:24:52.789Z,59.60
2023-02-03T09:27:22.078Z,55.67
2023-02-03T09:29:50.819Z,57.55
2023-02-03T09:32:19.828Z,58.20
2023-02-03T09:34:48.526Z,58.65
2023-02-03T09:37:17.642Z,56.55
2023-02-03T09:39:46.250Z,58.00
2023-02-03T09:42:45.794Z,58.72
2023-02-03T09:45:30.878Z,56.70
2023-02-03T09:48:21.875Z,56.17
2023-02-03T09:50:50.661Z,57.88
2023-02-03T09:53:45.424Z,58.08
2023-02-03T09:56:30.082Z,59.40
2023-02-03T09:58:59.031Z,55.80
2023-02-03T10:01:33.297Z,55.15
2023-02-03T10:04:05.916Z,59.03
2023-02-03T10:06:38.396Z,60.53
2023-02-03T10:09:13.752Z,60.05
2023-02-03T10:12:09.754Z,58.50
2023-02-03T10:14:54.450Z,60.03
2023-02-03T10:17:37.274Z,61.80
2023-02-03T10:20:10.411Z,60.80
2023-02-03T10:23:04.200Z,61.33
2023-02-03T10:25:46.286Z,62.20
2023-02-03T10:28:20.668Z,59.70
2023-02-03T10:31:01.300Z,60.70
2023-02-03T10:33:31.790Z,61.58
2023-02-03T10:36:15.463Z,60.63
2023-02-03T10:39:30.457Z,61.97
2023-02-03T10:42:00.453Z,61.67
2023-02-03T10:44:44.428Z,62.80
2023-02-03T10:47:36.016Z,65.32
2023-02-03T10:50:15.530Z,64.70
2023-02-03T10:52:44.449Z,64.60
2023-02-03T10:55:27.386Z,63.80
2023-02-03T10:57:56.409Z,65.40
2023-02-03T11:00:30.728Z,63.17
2023-02-03T11:03:26.518Z,64.88
2023-02-03T11:06:11.830Z,63.20
2023-02-03T11:08:46.215Z,65.85
2023-02-03T11:11:16.539Z,66.53
2023-02-03T11:13:45.452Z,65.28
2023-02-03T11:16:21.024Z,66.10
2023-02-03T11:19:08.880Z,68.53
2023-02-03T11:21:40.231Z,66.55
2023-02-03T11:24:22.532Z,63.65
2023-02-03T11:27:04.949Z,65.45
2023-02-03T11:29:36.086Z,65.95
2023-02-03T11:32:22.002Z,67.90
2023-02-03T11:35:18.452Z,68.85
2023-02-03T11:37:49.478Z,64.88
2023-02-03T11:40:27.670Z,65.38
2023-02-03T11:42:56.228Z,68.07
2023-02-03T11:45:44.613Z,66.07
2023-02-03T11:48:35.719Z,67.22
2023-02-03T11:51:30.050Z,66.55
2023-02-03T11:54:23.640Z,67.57
2023-02-03T11:57:24.749Z,69.43
2023-02-03T12:00:01.900Z,66.88
2023-02-03T12:03:20.761Z,68.95
2023-02-03T12:06:15.280Z,66.95
2023-02-03T12:09:06.023Z,65.72
2023-02-03T12:11:59.097Z,65.57
2023-02-03T12:14:53.974Z,66.80
2023-02-03T12:17:39.333Z,69.60
2023-02-03T12:20:26.303Z,65.82
2023-02-03T12:23:24.955Z,67.75
2023-02-03T12:26:03.882Z,65.90
2023-02-03T12:29:15.027Z,70.38
2023-02-03T12:32:04.929Z,66.85
2023-02-03T12:34:38.658Z,73.95
2023-02-03T12:37:10.659Z,67.90
2023-02-03T12:40:03.004Z,69.55
2023-02-03T12:42:44.609Z,70.90
2023-02-03T12:45:40.377Z,67.60
2023-02-03T12:48:14.501Z,69.50
2023-02-03T12:50:54.513Z,69.95
2023-02-03T12:53:30.791Z,71.72
2023-02-03T12:56:05.308Z,70.45
2023-02-03T12:58:52.727Z,68.53
2023-02-03T13:01:46.344Z,69.05
2023-02-03T13:04:36.536Z,69.47
2023-02-03T13:07:17.558Z,69.78
2023-02-03T13:09:58.672Z,68.75
2023-02-03T13:12:44.992Z,72.28
2023-02-03T13:15:33.200Z,69.35
2023-02-03T13:18:19.899Z,68.80
2023-02-03T13:20:48.788Z,66.15
2023-02-03T13:23:17.647Z,70.25
2023-02-03T13:26:08.378Z,66.78
2023-02-03T13:29:13.289Z,69.78
2023-02-03T13:32:38.359Z,69.20
2023-02-03T13:35:47.807Z,70.35
2023-02-03T13:38:53.845Z,70.20
2023-02-03T13:41:50.279Z,70.10
2023-02-03T13:44:28.937Z,71.40
2023-02-03T13:46:58.237Z,69.70
2023-02-03T13:49:32.467Z,69.80
2023-02-03T13:52:01.313Z,68.38
2023-02-03T13:54:35.257Z,68.40
2023-02-03T13:57:06.935Z,68.07
2023-02-03T13:59:42.746Z,68.70
2023-02-03T14:02:20.364Z,65.50
2023-02-03T14:04:58.236Z,66.10
2023-02-03T14:07:38.389Z,64.88
2023-02-03T14:10:13.611Z,65.20
2023-02-03T14:12:51.288Z,63.78
2023-02-03T14:15:29.145Z,61.28
2023-02-03T14:18:02.213Z,62.53
2023-02-03T14:20:37.167Z,62.75
2023-02-03T14:23:05.980Z,63.75
2023-02-03T14:25:45.833Z,64.07
2023-02-03T14:28:20.539Z,66.68
2023-02-03T14:31:17.353Z,61.45
2023-02-03T14:33:49.360Z,66.40
2023-02-03T14:36:42.085Z,64.53
2023-02-03T14:39:22.676Z,62.70
2023-02-03T14:42:09.727Z,65.88
2023-02-03T14:44:44.506Z,67.40
2023-02-03T14:47:19.607Z,65.90
2023-02-03T14:50:22.354Z,68.97
2023-02-03T14:53:26.337Z,65.93
2023-02-03T14:56:00.917Z,61.60
2023-02-03T14:58:36.097Z,63.22
2023-02-03T15:01:05.742Z,64.13
2023-02-03T15:03:35.780Z,65.13
2023-02-03T15:06:05.595Z,65.03
2023-02-03T15:08:45.966Z,65.53
2023-02-03T15:11:31.234Z,65.63
2023-02-03T15:14:26.023Z,65.32
2023-02-03T15:17:02.437Z,69.07
2023-02-03T15:19:40.451Z,69.45
2023-02-03T15:22:25.768Z,68.38
2023-02-03T15:25:04.896Z,68.28
2023-02-03T15:27:33.651Z,65.25
2023-02-03T15:30:19.935Z,70.85
2023-02-03T15:33:07.816Z,68.00
2023-02-03T15:35:37.126Z,66.53
2023-02-03T15:38:08.226Z,69.47
2023-02-03T15:40:48.669Z,67.85
2023-02-03T15:43:30.351Z,68.55
2023-02-03T15:46:13.567Z,69.65
2023-02-03T15:49:04.029Z,66.63
2023-02-03T15:51:34.967Z,67.43
2023-02-03T15:54:30.633Z,70.15
2023-02-03T15:57:05.788Z,67.05
2023-02-03T15:59:37.267Z,69.53
2023-02-03T16:02:19.727Z,66.63
2023-02-03T16:04:50.495Z,68.88
2023-02-03T16:07:26.397Z,69.82
2023-02-03T16:09:55.814Z,68.22
2023-02-03T16:12:26.488Z,70.30
2023-02-03T16:14:56.193Z,67.10
2023-02-03T16:17:28.197Z,67.78
2023-02-03T16:20:12.206Z,68.85
2023-02-03T16:22:45.050Z,66.72
2023-02-03T16:25:20.368Z,67.35
2023-02-03T16:28:18.208Z,66.35
2023-02-03T16:31:16.038Z,64.85
2023-02-03T16:34:07.916Z,61.30
2023-02-03T16:36:59.512Z,66.75
2023-02-03T16:39:47.195Z,65.32
2023-02-03T16:42:38.945Z,65.25
2023-02-03T16:45:32.286Z,64.75
2023-02-03T16:48:19.600Z,66.10
2023-02-03T16:50:58.221Z,64.45
2023-02-03T16:53:30.540Z,63.28
2023-02-03T16:56:04.789Z,63.15
2023-02-03T16:58:33.514Z,62.95
2023-02-03T17:01:04.052Z,66.75
2023-02-03T17:03:33.914Z,63.15
2023-02-03T17:06:10.362Z,64.35
2023-02-03T17:08:40.868Z,63.90
2023-02-03T17:11:16.199Z,63.25
2023-02-03T17:13:45.338Z,61.95
2023-02-03T17:16:23.453Z,67.65
2023-02-03T17:18:52.390Z,62.28
2023-02-03T17:21:26.212Z,62.63
2023-02-03T17:23:54.994Z,64.50
2023-02-03T17:26:26.731Z,65.07
2023-02-03T17:28:55.535Z,62.85
2023-02-03T17:31:24.773Z,62.50
2023-02-03T17:33:53.694Z,64.93
2023-02-03T17:36:23.384Z,63.10
2023-02-03T17:55:32.918Z,59.50
2023-02-03T17:58:02.137Z,59.78
2023-02-03T18:00:30.985Z,59.15
2023-02-03T18:03:00.090Z,59.72
2023-02-03T18:05:29.712Z,57.92
2023-02-03T18:08:03.036Z,58.22
2023-02-03T18:10:37.757Z,58.40
2023-02-03T18:13:06.680Z,60.60
2023-02-03T18:15:37.925Z,60.50
2023-02-03T18:18:08.158Z,61.03
2023-02-03T18:20:36.862Z,62.05
2023-02-03T18:23:06.227Z,64.75
2023-02-03T18:25:36.366Z,59.92
2023-02-03T18:28:05.455Z,61.45
2023-02-03T18:30:34.278Z,62.10
2023-02-03T18:33:04.269Z,60.80
2023-02-03T18:35:34.279Z,59.38
2023-02-03T18:38:03.275Z,60.97
2023-02-03T18:40:32.140Z,61.88
2023-02-03T18:43:02.504Z,61.85
2023-02-03T18:45:34.700Z,61.90
2023-02-03T18:48:04.008Z,59.33
2023-02-03T18:50:32.787Z,59.58
2023-02-03T18:53:16.481Z,59.80
2023-02-03T18:55:45.583Z,59.08
2023-02-03T18:58:14.391Z,60.03
2023-02-03T19:00:43.297Z,59.08
2023-02-03T19:03:11.920Z,58.17
2023-02-03T19:05:41.145Z,60.65
2023-02-03T19:08:10.046Z,60.28
2023-02-03T19:10:39.025Z,60.15
2023-02-03T19:13:07.607Z,60.45
2023-02-03T19:15:36.715Z,60.30
2023-02-03T19:18:05.589Z,60.78
2023-02-03T19:20:34.647Z,60.70
2023-02-03T19:23:04.961Z,62.63
2023-02-03T19:25:34.167Z,60.95
2023-02-03T19:28:03.609Z,61.13
2023-02-03T19:30:33.080Z,62.10
2023-02-03T19:33:01.846Z,61.97
2023-02-03T19:35:33.445Z,61.38
2023-02-03T19:38:02.161Z,62.97
2023-02-03T19:40:31.626Z,61.08
2023-02-03T19:43:00.735Z,60.47
2023-02-03T19:45:29.743Z,59.20
2023-02-03T19:47:58.325Z,60.20
2023-02-03T19:50:27.368Z,59.78
2023-02-03T19:52:56.177Z,58.08
2023-02-03T19:55:30.761Z,59.40
2023-02-03T19:58:02.829Z,59.17
2023-02-03T20:00:31.938Z,58.50
2023-02-03T20:03:00.579Z,57.70
2023-02-03T20:05:30.038Z,57.67
2023-02-03T20:07:58.640Z,59.42
2023-02-03T20:10:28.141Z,58.50
2023-02-03T20:12:57.166Z,56.97
2023-02-03T20:15:27.047Z,55.97
2023-02-03T20:17:55.888Z,56.88
2023-02-03T20:20:25.253Z,56.45
2023-02-03T20:22:53.848Z,59.08
2023-02-03T20:25:23.260Z,58.08
2023-02-03T20:27:52.072Z,56.20
2023-02-03T20:30:21.193Z,56.38
2023-02-03T20:32:50.198Z,56.63
2023-02-03T20:35:24.193Z,57.13
2023-02-03T20:37:53.008Z,54.80
2023-02-03T20:40:23.159Z,56.63
2023-02-03T20:42:53.224Z,57.55
2023-02-03T20:45:24.009Z,57.67
2023-02-03T20:47:52.781Z,58.50
2023-02-03T20:50:28.884Z,57.72
2023-02-03T20:53:00.930Z,56.85
2023-02-03T20:55:29.964Z,59.35
2023-02-03T20:57:58.775Z,55.70
2023-02-03T21:00:28.570Z,58.53
2023-02-03T21:03:16.224Z,56.45
2023-02-03T21:05:48.352Z,58.25
2023-02-03T21:08:18.512Z,56.95
2023-02-03T21:10:48.274Z,56.97
2023-02-03T21:13:27.462Z,57.80
2023-02-03T21:16:03.073Z,58.22
2023-02-03T21:18:44.746Z,57.65
2023-02-03T21:21:25.051Z,56.50
2023-02-03T21:23:53.990Z,57.50
2023-02-03T21:26:24.705Z,57.25
2023-02-03T21:28:59.971Z,59.45
2023-02-03T21:31:33.557Z,59.25
2023-02-03T21:34:17.551Z,57.10
2023-02-03T21:36:46.877Z,56.92
2023-02-03T21:39:27.884Z,61.55
2023-02-03T21:41:57.826Z,60.33
2023-02-03T21:44:36.065Z,57.95
2023-02-03T21:47:17.936Z,56.75
2023-02-03T21:49:46.603Z,57.50
2023-02-03T21:52:15.697Z,60.83
2023-02-03T21:54:44.737Z,56.85
2023-02-03T21:57:16.886Z,58.13
2023-02-03T21:59:49.430Z,56.90
2023-02-03T22:02:29.506Z,57.72
2023-02-03T22:04:58.833Z,57.35
2023-02-03T22:07:27.700Z,58.22
2023-02-03T22:09:56.319Z,57.97
2023-02-03T22:12:25.219Z,58.10
2023-02-03T22:14:53.895Z,57.08
2023-02-03T22:17:22.846Z,54.25
2023-02-03T22:19:51.550Z,56.17
2023-02-03T22:22:20.509Z,56.53
2023-02-03T22:24:49.162Z,58.38
2023-02-03T22:27:18.512Z,56.92
2023-02-03T22:29:47.128Z,54.83
2023-02-03T22:32:16.889Z,53.78
2023-02-03T22:34:45.570Z,57.17
2023-02-03T22:37:14.527Z,56.55
2023-02-03T22:39:43.182Z,55.58
2023-02-03T22:42:12.157Z,57.70
2023-02-03T22:44:40.777Z,57.90
2023-02-03T22:47:09.679Z,56.65
2023-02-03T22:49:38.699Z,55.63
2023-02-03T22:52:07.715Z,54.40
2023-02-03T22:54:37.035Z,55.90
2023-02-03T22:57:06.066Z,57.78
2023-02-03T22:59:34.634Z,55.22
2023-02-03T23:02:03.626Z,54.28
2023-02-03T23:04:32.410Z,55.15
2023-02-03T23:07:01.386Z,55.67
2023-02-03T23:09:30.068Z,55.33
2023-02-03T23:11:59.230Z,55.15
2023-02-03T23:14:28.085Z,58.33
2023-02-03T23:16:57.097Z,54.83
2023-02-03T23:19:26.012Z,54.95
2023-02-03T23:21:55.170Z,57.30
2023-02-03T23:24:23.782Z,55.65
2023-02-03T23:26:52.870Z,57.80
2023-02-03T23:29:21.605Z,58.22
2023-02-03T23:31:50.838Z,58.88
2023-02-03T23:34:37.792Z,60.00
2023-02-03T23:37:06.882Z,59.60
2023-02-03T23:39:35.615Z,60.28
2023-02-03T23:42:05.042Z,59.40
2023-02-03T23:44:33.632Z,60.75
2023-02-03T23:47:02.629Z,58.17
2023-02-03T23:49:31.656Z,58.90
2023-02-03T23:52:00.894Z,60.30
2023-02-03T23:54:29.626Z,59.83
2023-02-03T23:56:58.639Z,59.08
2023-02-03T23:59:27.313Z,58.88
